createdAt,value
2022-08-14T00:01:24.060Z,22.32
2022-08-14T00:03:50.942Z,22.40
2022-08-14T00:06:29.143Z,22.44
2022-08-14T00:08:59.265Z,22.42
2022-08-14T00:11:28.731Z,22.47
2022-08-14T00:14:01.370Z,22.44
2022-08-14T00:16:41.627Z,22.45
2022-08-14T00:19:19.746Z,22.50
2022-08-14T00:21:52.406Z,22.52
2022-08-14T00:24:28.120Z,22.51
2022-08-14T00:26:57.137Z,22.46
2022-08-14T00:29:25.254Z,22.48
2022-08-14T00:31:55.970Z,22.49
2022-08-14T00:34:36.031Z,22.53
2022-08-14T00:37:11.213Z,22.56
2022-08-14T00:39:39.409Z,22.58
2022-08-14T00:42:07.482Z,22.57
2022-08-14T00:44:48.770Z,22.57
2022-08-14T00:47:16.926Z,22.50
2022-08-14T00:49:45.437Z,22.34
2022-08-14T00:52:17.827Z,22.19
2022-08-14T00:54:46.432Z,22.18
2022-08-14T00:57:13.536Z,22.09
2022-08-14T00:59:41.265Z,22.09
2022-08-14T01:02:09.389Z,22.08
2022-08-14T01:04:54.055Z,22.11
2022-08-14T01:07:22.817Z,21.99
2022-08-14T01:10:07.854Z,21.92
2022-08-14T01:12:40.505Z,21.85
2022-08-14T01:15:09.440Z,21.75
2022-08-14T01:17:54.974Z,21.76
2022-08-14T01:20:40.851Z,21.75
2022-08-14T01:23:16.219Z,21.54
2022-08-14T01:25:47.840Z,21.54
2022-08-14T01:28:46.230Z,21.51
2022-08-14T01:31:01.915Z,21.56
2022-08-14T01:33:29.951Z,21.51
2022-08-14T01:36:05.464Z,21.53
2022-08-14T01:38:37.367Z,21.46
2022-08-14T01:41:15.375Z,21.47
2022-08-14T01:43:56.762Z,21.41
2022-08-14T01:46:25.159Z,21.32
2022-08-14T01:49:02.108Z,21.35
2022-08-14T01:51:30.603Z,21.34
2022-08-14T01:54:05.819Z,21.38
2022-08-14T01:56:37.492Z,21.46
2022-08-14T01:59:22.197Z,21.41
2022-08-14T02:01:59.103Z,21.35
2022-08-14T02:04:55.094Z,21.29
2022-08-14T02:07:34.807Z,21.29
2022-08-14T02:10:13.032Z,21.33
2022-08-14T02:12:49.034Z,21.39
2022-08-14T02:15:21.784Z,21.44
2022-08-14T02:17:49.998Z,21.45
2022-08-14T02:20:17.834Z,21.47
2022-08-14T02:22:52.133Z,21.45
2022-08-14T02:25:21.184Z,21.43
2022-08-14T02:28:25.655Z,21.37
2022-08-14T02:30:38.338Z,21.30
2022-08-14T02:33:05.706Z,21.36
2022-08-14T02:35:32.605Z,21.34
2022-08-14T02:37:59.639Z,21.35
2022-08-14T02:40:32.072Z,21.27
2022-08-14T02:43:02.497Z,21.30
2022-08-14T02:45:38.671Z,21.25
2022-08-14T02:49:01.405Z,21.26
2022-08-14T02:51:00.898Z,21.29
2022-08-14T02:53:29.481Z,21.28
2022-08-14T02:56:03.189Z,21.31
2022-08-14T02:58:32.232Z,21.32
2022-08-14T03:00:59.962Z,21.33
2022-08-14T03:03:28.741Z,21.31
2022-08-14T03:06:00.325Z,21.25
2022-08-14T03:08:31.673Z,21.23
2022-08-14T03:11:07.620Z,21.16
2022-08-14T03:13:35.846Z,21.07
2022-08-14T03:16:09.251Z,21.02
2022-08-14T03:18:52.580Z,20.97
2022-08-14T03:21:22.337Z,20.97
2022-08-14T03:24:21.337Z,20.96
2022-08-14T03:26:49.811Z,20.94
2022-08-14T03:29:24.522Z,20.95
2022-08-14T03:31:52.881Z,20.91
2022-08-14T03:34:24.695Z,20.86
2022-08-14T03:37:51.989Z,20.71
2022-08-14T03:39:53.590Z,20.74
2022-08-14T03:42:20.088Z,20.69
2022-08-14T03:45:18.535Z,20.65
2022-08-14T03:47:53.385Z,20.54
2022-08-14T03:50:30.716Z,20.46
2022-08-14T03:53:02.355Z,20.41
2022-08-14T03:55:30.293Z,20.40
2022-08-14T03:57:57.957Z,20.40
2022-08-14T04:00:43.530Z,20.32
2022-08-14T04:03:23.595Z,20.31
2022-08-14T04:05:51.553Z,20.21
2022-08-14T04:08:29.067Z,20.20
2022-08-14T04:10:58.421Z,20.26
2022-08-14T04:13:25.097Z,20.27
2022-08-14T04:16:01.097Z,19.92
2022-08-14T04:18:29.822Z,19.80
2022-08-14T04:20:58.068Z,19.84
2022-08-14T04:23:29.911Z,19.97
2022-08-14T04:26:00.990Z,19.96
2022-08-14T04:29:08.217Z,19.95
2022-08-14T04:31:16.433Z,20.01
2022-08-14T04:33:42.959Z,20.06
2022-08-14T04:36:15.959Z,20.07
2022-08-14T04:39:03.015Z,20.01
2022-08-14T04:41:48.522Z,20.04
2022-08-14T04:44:35.819Z,19.94
2022-08-14T04:47:21.668Z,19.81
2022-08-14T04:49:57.072Z,19.75
2022-08-14T04:52:24.734Z,19.70
2022-08-14T04:54:51.507Z,19.69
2022-08-14T04:57:17.991Z,19.68
2022-08-14T04:59:45.906Z,19.71
2022-08-14T05:02:13.735Z,19.77
2022-08-14T05:04:45.400Z,19.83
2022-08-14T05:07:46.425Z,19.84
2022-08-14T05:10:16.394Z,19.85
2022-08-14T05:13:11.149Z,19.90
2022-08-14T05:15:37.375Z,19.79
2022-08-14T05:18:17.794Z,19.83
2022-08-14T05:21:56.396Z,19.81
2022-08-14T05:23:48.296Z,19.78
2022-08-14T05:26:14.849Z,19.83
2022-08-14T05:28:46.339Z,19.80
2022-08-14T05:31:20.768Z,19.76
2022-08-14T05:33:54.653Z,19.73
2022-08-14T05:36:23.835Z,19.79
2022-08-14T05:38:50.995Z,19.86
2022-08-14T05:41:20.019Z,19.88
2022-08-14T05:43:51.175Z,19.94
2022-08-14T05:46:22.831Z,20.04
2022-08-14T05:48:53.148Z,20.11
2022-08-14T05:51:20.984Z,20.14
2022-08-14T05:53:59.970Z,20.18
2022-08-14T05:56:29.063Z,20.24
2022-08-14T05:58:55.911Z,20.31
2022-08-14T06:01:23.509Z,20.33
2022-08-14T06:03:50.469Z,20.41
2022-08-14T06:06:21.098Z,20.47
2022-08-14T06:08:47.688Z,20.51
2022-08-14T06:11:20.403Z,20.57
2022-08-14T06:13:57.449Z,20.61
2022-08-14T06:16:23.947Z,20.67
2022-08-14T06:18:52.366Z,20.70
2022-08-14T06:21:22.893Z,20.75
2022-08-14T06:23:49.924Z,20.82
2022-08-14T06:26:20.734Z,20.86
2022-08-14T06:28:52.500Z,20.92
2022-08-14T06:31:19.738Z,21.00
2022-08-14T06:35:11.364Z,21.08
2022-08-14T06:36:33.580Z,21.16
2022-08-14T06:39:00.191Z,21.22
2022-08-14T06:41:58.390Z,21.26
2022-08-14T06:44:15.081Z,21.35
2022-08-14T06:46:42.628Z,21.42
2022-08-14T06:49:16.016Z,21.45
2022-08-14T06:51:46.698Z,21.46
2022-08-14T06:54:16.731Z,21.47
2022-08-14T06:56:44.428Z,21.48
2022-08-14T06:59:20.703Z,21.50
2022-08-14T07:02:07.233Z,21.55
2022-08-14T07:04:58.627Z,21.65
2022-08-14T07:07:25.202Z,21.70
2022-08-14T07:09:55.483Z,21.71
2022-08-14T07:12:34.860Z,21.71
2022-08-14T07:15:09.217Z,21.75
2022-08-14T07:17:44.831Z,21.89
2022-08-14T07:20:11.544Z,21.89
2022-08-14T07:22:56.143Z,21.87
2022-08-14T07:25:32.228Z,21.87
2022-08-14T07:28:00.354Z,21.86
2022-08-14T07:30:34.514Z,21.88
2022-08-14T07:33:01.876Z,21.93
2022-08-14T07:35:30.389Z,22.02
2022-08-14T07:38:18.221Z,22.12
2022-08-14T07:40:48.321Z,22.15
2022-08-14T07:43:20.202Z,22.19
2022-08-14T07:45:47.956Z,22.34
2022-08-14T07:48:17.701Z,22.40
2022-08-14T07:50:50.581Z,22.41
2022-08-14T07:53:19.338Z,22.42
2022-08-14T07:55:46.609Z,22.41
2022-08-14T07:58:34.235Z,22.45
2022-08-14T08:01:07.374Z,22.48
2022-08-14T08:03:42.249Z,22.48
2022-08-14T08:06:17.518Z,22.47
2022-08-14T08:09:01.130Z,22.46
2022-08-14T08:11:37.100Z,22.46
2022-08-14T08:14:10.886Z,22.55
2022-08-14T08:16:46.454Z,22.70
2022-08-14T08:19:14.375Z,22.72
2022-08-14T08:21:43.861Z,22.71
2022-08-14T08:24:15.013Z,22.78
2022-08-14T08:26:45.315Z,22.75
2022-08-14T08:29:20.171Z,22.76
2022-08-14T08:31:52.718Z,22.79
2022-08-14T08:34:20.811Z,22.92
2022-08-14T08:36:51.031Z,22.92
2022-08-14T08:39:22.473Z,22.93
2022-08-14T08:41:53.155Z,22.92
2022-08-14T08:44:32.883Z,22.95
2022-08-14T08:47:05.557Z,22.92
2022-08-14T08:49:43.267Z,23.01
2022-08-14T08:52:25.509Z,22.99
2022-08-14T08:54:56.159Z,22.97
2022-08-14T08:57:24.227Z,23.01
2022-08-14T08:59:54.928Z,23.06
2022-08-14T09:02:22.651Z,23.10
2022-08-14T09:05:01.895Z,23.11
2022-08-14T09:07:28.446Z,23.07
2022-08-14T09:09:58.500Z,23.04
2022-08-14T09:12:31.466Z,23.06
2022-08-14T09:15:08.996Z,23.10
2022-08-14T09:17:41.283Z,23.18
2022-08-14T09:20:11.778Z,23.20
2022-08-14T09:22:47.694Z,23.18
2022-08-14T09:25:16.508Z,23.18
2022-08-14T09:27:43.581Z,23.20
2022-08-14T09:30:30.646Z,23.25
2022-08-14T09:33:09.235Z,23.32
2022-08-14T09:35:57.522Z,23.64
2022-08-14T09:38:40.548Z,23.84
2022-08-14T09:41:10.116Z,23.79
2022-08-14T09:43:51.752Z,23.71
2022-08-14T09:46:21.325Z,23.69
2022-08-14T09:49:02.904Z,23.60
2022-08-14T09:51:32.920Z,23.65
2022-08-14T09:54:19.662Z,23.69
2022-08-14T09:56:56.475Z,23.77
2022-08-14T09:59:27.980Z,23.84
2022-08-14T10:01:57.077Z,23.92
2022-08-14T10:04:34.233Z,23.97
2022-08-14T10:07:08.480Z,23.91
2022-08-14T10:09:59.647Z,23.87
2022-08-14T10:12:45.914Z,23.87
2022-08-14T10:15:18.440Z,23.83
2022-08-14T10:17:46.429Z,23.85
2022-08-14T10:20:40.671Z,23.88
2022-08-14T10:23:19.814Z,23.90
2022-08-14T10:25:51.252Z,23.92
2022-08-14T10:28:57.448Z,24.58
2022-08-14T10:31:29.582Z,24.99
2022-08-14T10:34:13.168Z,24.91
2022-08-14T10:36:47.818Z,24.69
2022-08-14T10:39:20.923Z,24.62
2022-08-14T10:41:53.774Z,24.72
2022-08-14T10:44:24.458Z,24.97
2022-08-14T10:47:40.340Z,25.24
2022-08-14T10:49:49.233Z,25.13
2022-08-14T10:52:23.495Z,24.97
2022-08-14T10:54:56.366Z,24.87
2022-08-14T10:57:28.023Z,24.90
2022-08-14T11:00:01.642Z,25.12
2022-08-14T11:02:44.808Z,25.16
2022-08-14T11:05:19.223Z,25.19
2022-08-14T11:07:55.444Z,25.20
2022-08-14T11:10:27.756Z,25.38
2022-08-14T11:12:57.793Z,25.51
2022-08-14T11:15:27.628Z,25.57
2022-08-14T11:17:56.481Z,25.60
2022-08-14T11:20:30.937Z,25.76
2022-08-14T11:22:59.595Z,25.93
2022-08-14T11:25:41.303Z,26.08
2022-08-14T11:28:14.847Z,26.06
2022-08-14T11:30:53.868Z,25.94
2022-08-14T11:33:29.352Z,25.84
2022-08-14T11:36:00.954Z,25.80
2022-08-14T11:38:35.598Z,25.74
2022-08-14T11:41:05.167Z,25.72
2022-08-14T11:43:56.203Z,25.63
2022-08-14T11:46:30.204Z,25.53
2022-08-14T11:49:05.643Z,25.48
2022-08-14T11:51:36.419Z,25.57
2022-08-14T11:54:34.461Z,25.85
2022-08-14T11:57:02.466Z,26.15
2022-08-14T11:59:33.586Z,26.19
2022-08-14T12:03:01.810Z,26.23
2022-08-14T12:05:00.903Z,26.42
2022-08-14T12:07:30.718Z,26.36
2022-08-14T12:09:59.383Z,26.46
2022-08-14T12:12:35.554Z,26.67
2022-08-14T12:15:13.840Z,26.71
2022-08-14T12:17:55.850Z,26.92
2022-08-14T12:20:33.337Z,27.10
2022-08-14T12:23:02.514Z,27.44
2022-08-14T12:25:34.465Z,27.71
2022-08-14T12:28:05.659Z,27.67
2022-08-14T12:30:39.874Z,27.99
2022-08-14T12:33:25.596Z,28.49
2022-08-14T12:35:56.436Z,28.87
2022-08-14T12:38:43.790Z,29.22
2022-08-14T12:41:27.807Z,29.52
2022-08-14T12:44:01.743Z,29.76
2022-08-14T12:46:37.612Z,29.93
2022-08-14T12:49:10.951Z,30.08
2022-08-14T12:51:37.592Z,30.25
2022-08-14T12:54:27.275Z,30.25
2022-08-14T12:57:14.608Z,30.43
2022-08-14T12:59:45.567Z,30.41
2022-08-14T13:02:26.951Z,30.63
2022-08-14T13:04:57.992Z,30.82
2022-08-14T13:07:32.847Z,30.93
2022-08-14T13:10:12.834Z,31.04
2022-08-14T13:13:12.074Z,31.06
2022-08-14T13:15:36.321Z,31.16
2022-08-14T13:18:04.859Z,31.15
2022-08-14T13:20:33.364Z,31.11
2022-08-14T13:23:02.321Z,31.09
2022-08-14T13:25:29.503Z,31.04
2022-08-14T13:27:59.059Z,31.09
2022-08-14T13:30:26.978Z,31.17
2022-08-14T13:32:58.036Z,31.26
2022-08-14T13:35:25.209Z,31.05
2022-08-14T13:37:52.305Z,30.57
2022-08-14T13:40:26.482Z,30.81
2022-08-14T13:42:56.663Z,30.66
2022-08-14T13:45:33.841Z,30.08
2022-08-14T13:48:27.456Z,30.35
2022-08-14T13:51:01.742Z,30.20
2022-08-14T13:53:33.256Z,29.88
2022-08-14T13:56:01.432Z,30.26
2022-08-14T13:58:34.603Z,30.51
2022-08-14T14:01:02.435Z,30.53
2022-08-14T14:03:38.013Z,30.22
2022-08-14T14:06:05.505Z,29.96
2022-08-14T14:08:46.429Z,30.19
2022-08-14T14:11:16.589Z,30.36
2022-08-14T14:13:48.417Z,30.36
2022-08-14T14:16:21.749Z,30.46
2022-08-14T14:19:08.713Z,30.32
2022-08-14T14:21:36.960Z,30.16
2022-08-14T14:24:05.944Z,29.95
2022-08-14T14:26:35.976Z,29.64
2022-08-14T14:29:06.402Z,29.44
2022-08-14T14:31:36.589Z,29.37
2022-08-14T14:34:07.365Z,29.30
2022-08-14T14:36:52.774Z,29.20
2022-08-14T14:39:27.393Z,29.13
2022-08-14T14:41:59.540Z,29.13
2022-08-14T14:44:41.183Z,29.24
2022-08-14T14:47:13.974Z,29.50
2022-08-14T14:49:54.759Z,29.60
2022-08-14T14:52:27.778Z,29.64
2022-08-14T14:54:58.972Z,29.72
2022-08-14T14:57:34.780Z,29.73
2022-08-14T15:00:02.213Z,29.64
2022-08-14T15:02:34.732Z,29.63
2022-08-14T15:05:05.039Z,29.62
2022-08-14T15:07:32.511Z,29.57
2022-08-14T15:10:00.232Z,29.53
2022-08-14T15:12:55.298Z,29.53
2022-08-14T15:15:14.753Z,29.56
2022-08-14T15:17:43.119Z,29.69
2022-08-14T15:20:17.495Z,29.62
2022-08-14T15:22:57.122Z,29.61
2022-08-14T15:25:23.625Z,29.57
2022-08-14T15:27:54.359Z,29.51
2022-08-14T15:30:23.907Z,29.34
2022-08-14T15:32:51.264Z,29.22
2022-08-14T15:35:22.419Z,29.23
2022-08-14T15:37:49.986Z,29.20
2022-08-14T15:40:22.832Z,29.34
2022-08-14T15:42:49.508Z,29.37
2022-08-14T15:45:17.143Z,29.53
2022-08-14T15:47:43.824Z,29.64
2022-08-14T15:50:10.444Z,29.78
2022-08-14T15:52:37.614Z,29.90
2022-08-14T15:55:10.438Z,29.83
2022-08-14T15:57:39.929Z,29.88
2022-08-14T16:00:50.040Z,29.71
2022-08-14T16:03:18.466Z,29.79
2022-08-14T16:05:54.143Z,29.74
2022-08-14T16:08:29.180Z,29.69
2022-08-14T16:10:59.767Z,29.65
2022-08-14T16:13:39.378Z,29.53
2022-08-14T16:16:49.339Z,29.43
2022-08-14T16:19:07.538Z,29.36
2022-08-14T16:21:39.700Z,29.27
2022-08-14T16:24:06.551Z,29.14
2022-08-14T16:26:34.863Z,29.06
2022-08-14T16:29:04.445Z,29.00
2022-08-14T16:31:35.708Z,28.95
2022-08-14T16:34:44.256Z,28.86
2022-08-14T16:36:57.142Z,28.78
2022-08-14T16:39:24.699Z,28.72
2022-08-14T16:41:52.576Z,28.65
2022-08-14T16:44:31.988Z,28.60
2022-08-14T16:47:02.663Z,28.57
2022-08-14T16:50:03.262Z,28.57
2022-08-14T16:52:26.142Z,28.62
2022-08-14T16:55:11.218Z,28.73
2022-08-14T16:57:54.937Z,28.87
2022-08-14T17:00:43.033Z,28.95
2022-08-14T17:03:12.052Z,29.04
2022-08-14T17:05:47.024Z,29.04
2022-08-14T17:08:33.450Z,28.97
2022-08-14T17:11:10.707Z,28.85
2022-08-14T17:13:58.754Z,28.74
2022-08-14T17:16:37.036Z,28.66
2022-08-14T17:19:13.491Z,28.60
2022-08-14T17:21:41.924Z,28.59
2022-08-14T17:24:56.837Z,28.60
2022-08-14T17:26:59.951Z,28.60
2022-08-14T17:29:34.183Z,28.58
2022-08-14T17:32:22.147Z,28.55
2022-08-14T17:37:45.820Z,28.41
2022-08-14T17:40:20.777Z,28.37
2022-08-14T17:42:53.363Z,28.35
2022-08-14T17:45:43.211Z,28.31
2022-08-14T17:49:13.998Z,28.26
2022-08-14T17:51:15.292Z,28.22
2022-08-14T17:53:53.394Z,28.17
2022-08-14T17:56:31.749Z,28.12
2022-08-14T17:59:05.334Z,28.07
2022-08-14T18:01:37.395Z,28.03
2022-08-14T18:04:28.579Z,27.99
2022-08-14T18:07:06.202Z,27.95
2022-08-14T18:09:57.422Z,27.88
2022-08-14T18:12:32.863Z,27.85
2022-08-14T18:15:14.341Z,27.82
2022-08-14T18:17:54.263Z,27.79
2022-08-14T18:21:42.104Z,27.75
2022-08-14T18:23:13.052Z,27.71
2022-08-14T18:25:47.181Z,27.66
2022-08-14T18:28:19.165Z,27.62
2022-08-14T18:31:20.713Z,27.56
2022-08-14T18:33:58.494Z,27.53
2022-08-14T18:36:54.394Z,27.44
2022-08-14T18:39:34.575Z,27.40
2022-08-14T18:42:23.931Z,27.38
2022-08-14T18:44:58.659Z,27.37
2022-08-14T18:47:28.809Z,27.31
2022-08-14T18:50:01.098Z,27.29
2022-08-14T18:52:39.833Z,27.22
2022-08-14T18:55:18.370Z,27.15
2022-08-14T18:57:58.018Z,27.13
2022-08-14T19:00:39.917Z,27.08
2022-08-14T19:03:11.035Z,27.03
2022-08-14T19:05:40.851Z,27.00
2022-08-14T19:08:17.646Z,26.95
2022-08-14T19:10:49.272Z,26.90
2022-08-14T19:13:48.504Z,26.70
2022-08-14T19:16:23.604Z,26.56
2022-08-14T19:19:00.566Z,26.51
2022-08-14T19:21:27.312Z,26.43
2022-08-14T19:24:27.278Z,26.42
2022-08-14T19:27:23.531Z,26.37
2022-08-14T19:30:09.831Z,26.34
2022-08-14T19:32:50.579Z,26.37
2022-08-14T19:35:24.383Z,26.37
2022-08-14T19:37:56.153Z,26.38
2022-08-14T19:40:35.245Z,26.36
2022-08-14T19:43:06.621Z,26.33
2022-08-14T19:45:36.968Z,26.30
2022-08-14T19:48:12.126Z,26.24
2022-08-14T19:50:40.583Z,26.16
2022-08-14T19:53:17.113Z,26.10
2022-08-14T19:55:59.653Z,25.95
2022-08-14T19:58:55.116Z,25.91
2022-08-14T20:01:37.142Z,25.86
2022-08-14T20:04:45.205Z,25.79
2022-08-14T20:07:09.232Z,25.78
2022-08-14T20:11:04.631Z,25.70
2022-08-14T20:12:36.618Z,25.58
2022-08-14T20:15:21.019Z,25.59
2022-08-14T20:17:54.181Z,25.59
2022-08-14T20:20:30.925Z,25.58
2022-08-14T20:23:11.955Z,25.49
2022-08-14T20:25:45.264Z,25.42
2022-08-14T20:28:31.692Z,25.34
2022-08-14T20:31:15.884Z,25.19
2022-08-14T20:34:19.031Z,25.07
2022-08-14T20:37:22.429Z,25.11
2022-08-14T20:39:54.541Z,25.10
2022-08-14T20:42:43.339Z,25.03
2022-08-14T20:45:23.666Z,25.08
2022-08-14T20:48:01.041Z,25.06
2022-08-14T20:50:30.035Z,25.06
2022-08-14T20:52:58.378Z,25.03
2022-08-14T20:55:34.944Z,24.94
2022-08-14T20:58:09.813Z,24.93
2022-08-14T21:01:13.028Z,24.84
2022-08-14T21:03:57.046Z,24.75
2022-08-14T21:07:23.035Z,24.81
2022-08-14T21:09:43.927Z,24.82
2022-08-14T21:12:34.252Z,24.85
2022-08-14T21:15:00.189Z,24.79
2022-08-14T21:17:27.442Z,24.70
2022-08-14T21:19:54.069Z,24.72
2022-08-14T21:22:20.737Z,24.70
2022-08-14T21:24:48.358Z,24.61
2022-08-14T21:27:22.766Z,24.44
2022-08-14T21:29:55.410Z,24.31
2022-08-14T21:32:34.961Z,24.38
2022-08-14T21:35:08.963Z,24.46
2022-08-14T21:37:47.795Z,24.50
2022-08-14T21:40:39.862Z,24.57
2022-08-14T21:43:04.233Z,24.46
2022-08-14T21:45:35.236Z,24.47
2022-08-14T21:48:09.247Z,24.50
2022-08-14T21:51:01.677Z,24.50
2022-08-14T21:53:31.177Z,24.50
2022-08-14T21:55:58.036Z,24.50
2022-08-14T21:58:52.016Z,24.45
2022-08-14T22:01:12.468Z,24.39
2022-08-14T22:03:45.175Z,24.33
2022-08-14T22:06:20.947Z,24.25
2022-08-14T22:08:55.676Z,24.28
2022-08-14T22:11:22.687Z,24.28
2022-08-14T22:13:50.812Z,24.27
2022-08-14T22:17:01.779Z,24.18
2022-08-14T22:19:07.006Z,23.86
2022-08-14T22:21:38.269Z,23.87
2022-08-14T22:24:12.398Z,23.90
2022-08-14T22:27:01.422Z,23.93
2022-08-14T22:29:28.772Z,23.96
2022-08-14T22:31:55.677Z,24.01
2022-08-14T22:34:23.101Z,24.00
2022-08-14T22:36:50.778Z,23.95
2022-08-14T22:40:51.072Z,23.83
2022-08-14T22:42:20.855Z,23.78
2022-08-14T22:44:48.535Z,23.72
2022-08-14T22:47:15.175Z,23.71
2022-08-14T22:50:31.158Z,23.72
2022-08-14T22:52:33.126Z,23.73
2022-08-14T22:55:05.867Z,23.75
2022-08-14T22:57:37.181Z,23.74
2022-08-14T23:00:08.645Z,23.73
2022-08-14T23:02:35.184Z,23.68
2022-08-14T23:05:04.562Z,23.58
2022-08-14T23:08:56.776Z,23.54
2022-08-14T23:10:33.035Z,23.44
2022-08-14T23:13:02.167Z,23.40
2022-08-14T23:15:30.103Z,23.30
2022-08-14T23:17:58.272Z,23.23
2022-08-14T23:20:29.536Z,23.25
2022-08-14T23:22:57.094Z,23.22
2022-08-14T23:25:56.749Z,23.13
2022-08-14T23:28:33.576Z,23.00
2022-08-14T23:31:05.646Z,22.82
2022-08-14T23:33:33.088Z,22.86
2022-08-14T23:36:00.122Z,22.93
2022-08-14T23:38:30.876Z,23.06
2022-08-14T23:41:00.832Z,23.05
2022-08-14T23:43:31.357Z,22.80
2022-08-14T23:45:58.786Z,22.80
2022-08-14T23:48:28.182Z,22.74
2022-08-14T23:50:55.684Z,22.81
2022-08-14T23:53:48.568Z,22.83
2022-08-14T23:56:30.200Z,22.77
2022-08-14T23:58:58.594Z,22.65
